Toll Gate Heights, Indiana
Current Conditions -  °F | °C
As of 12:15 AM on Tuesday 21 Oct 2014 (Local Time) from KHHG Reporting Station
Overcast Overcast  
Wind Chill: 50°   Ceiling: 4800
Heat Index: 50°   Visibility: 10mi
Dew Point: 46°   Wind: 3mph
Humidity: 84%   Direction: 290°WNW
Pressure: 29.94"   Gusts: NA
Location:  40.7175°N, 85.1549°W
Report Text: KHHG 210415Z AUTO 29003KT 10SM BKN048 OVC065 10/08 A2994 RMK AO2 T01010075
Loading
Personal Weather Stations






























Interactive Weather Map
Tropical Storm Tracking
New forecast layout! Learn more

10-Day Weather Forecast

Advertisements
Track Severe Weather on mobile